Time;durP1;ratioP1;P1;durP2;ratioP2;P2;SDS_P1;SDS_P2;PMS_P1;PMS_P2;Temp;Humidity;BMP_temperature;BMP_pressure;BME280_temperature;BME280_humidity;BME280_pressure;Samples;Min_cycle;Max_cycle;Signal;HPM_P1;HPM_P2
2022/01/04 00:01:21;;;;;;;10.13;4.25;;;;;;;;;;5021397;28;20091;-57
2022/01/04 00:03:47;;;;;;;8.70;4.13;;;;;;;;;;5025085;28;20053;-57
2022/01/04 00:06:14;;;;;;;13.55;4.43;;;;;;;;;;5021650;28;20123;-57
2022/01/04 00:08:43;;;;;;;12.43;4.70;;;;;;;;;;5024739;28;20045;-55
2022/01/04 00:11:16;;;;;;;10.85;4.25;;;;;;;;;;5020129;28;20075;-54
2022/01/04 00:13:44;;;;;;;11.73;4.70;;;;;;;;;;5037930;28;20060;-56
2022/01/04 00:16:11;;;;;;;14.20;4.18;;;;;;;;;;5027589;28;20061;-56
2022/01/04 00:18:38;;;;;;;9.93;4.28;;;;;;;;;;5025199;28;20057;-57
2022/01/04 00:21:04;;;;;;;18.38;5.70;;;;;;;;;;5022025;28;20145;-59
2022/01/04 00:23:31;;;;;;;10.45;4.68;;;;;;;;;;5026429;28;20113;-59
2022/01/04 00:25:58;;;;;;;12.90;5.20;;;;;;;;;;5022332;28;20136;-59
2022/01/04 00:28:25;;;;;;;12.43;4.93;;;;;;;;;;5022035;28;20056;-56
2022/01/04 00:30:56;;;;;;;10.68;4.82;;;;;;;;;;5023200;28;20059;-57
2022/01/04 00:33:22;;;;;;;12.25;6.20;;;;;;;;;;5025787;28;20060;-57
2022/01/04 00:35:49;;;;;;;11.30;4.65;;;;;;;;;;5021423;28;20115;-55
2022/01/04 00:38:16;;;;;;;12.98;4.97;;;;;;;;;;5024905;28;20060;-53
2022/01/04 00:40:42;;;;;;;13.35;4.72;;;;;;;;;;5020803;28;20072;-55
2022/01/04 00:43:08;;;;;;;11.98;5.47;;;;;;;;;;5025044;28;20150;-59
2022/01/04 00:45:36;;;;;;;12.63;5.10;;;;;;;;;;5024607;28;20084;-56
2022/01/04 00:50:49;;;;;;;10.27;4.85;;;;;;;;;;5024573;28;20059;-55
2022/01/04 00:53:15;;;;;;;10.55;4.80;;;;;;;;;;5020875;28;20054;-57
2022/01/04 00:55:42;;;;;;;12.02;5.45;;;;;;;;;;5024020;28;20122;-57
2022/01/04 00:58:10;;;;;;;11.13;5.53;;;;;;;;;;5020482;28;20100;-56
2022/01/04 01:00:37;;;;;;;9.75;4.35;;;;;;;;;;5024435;28;20069;-53
2022/01/04 01:03:05;;;;;;;16.42;4.97;;;;;;;;;;5020131;28;20050;-56
2022/01/04 01:05:32;;;;;;;12.05;5.10;;;;;;;;;;5024344;28;20132;-57
2022/01/04 01:07:59;;;;;;;10.02;5.13;;;;;;;;;;5020598;28;20068;-58
2022/01/04 01:10:41;;;;;;;15.95;5.57;;;;;;;;;;5024108;28;20061;-57
2022/01/04 01:13:08;;;;;;;10.18;5.30;;;;;;;;;;5024432;28;20049;-56
2022/01/04 01:15:36;;;;;;;13.77;5.18;;;;;;;;;;5027908;28;20057;-57
2022/01/04 01:18:02;;;;;;;11.18;5.20;;;;;;;;;;5023625;28;20063;-57
2022/01/04 01:20:30;;;;;;;14.15;5.57;;;;;;;;;;5027894;28;20050;-60
2022/01/04 01:22:57;;;;;;;12.95;5.35;;;;;;;;;;5024543;28;20059;-56
2022/01/04 01:25:23;;;;;;;12.82;4.90;;;;;;;;;;5028229;28;20131;-57
2022/01/04 01:27:50;;;;;;;12.07;5.22;;;;;;;;;;5024176;28;20180;-52
2022/01/04 01:30:17;;;;;;;15.20;5.68;;;;;;;;;;5027804;28;20060;-58
2022/01/04 01:32:44;;;;;;;13.93;4.88;;;;;;;;;;5024046;28;20168;-57
2022/01/04 01:35:11;;;;;;;11.43;5.53;;;;;;;;;;5027868;28;20057;-55
2022/01/04 01:37:39;;;;;;;10.63;5.28;;;;;;;;;;5027307;28;20091;-56
2022/01/04 01:40:07;;;;;;;13.77;5.45;;;;;;;;;;5023845;28;20045;-55
2022/01/04 01:42:33;;;;;;;10.80;5.32;;;;;;;;;;5027733;28;20049;-59
2022/01/04 01:45:00;;;;;;;10.45;5.47;;;;;;;;;;5022982;28;20081;-55
2022/01/04 01:47:26;;;;;;;12.40;5.70;;;;;;;;;;5027329;28;20073;-55
2022/01/04 01:49:53;;;;;;;12.98;5.60;;;;;;;;;;5023595;28;20139;-54
2022/01/04 01:52:19;;;;;;;12.85;5.55;;;;;;;;;;5028216;28;20053;-56
2022/01/04 01:54:47;;;;;;;14.52;5.72;;;;;;;;;;5024400;28;20045;-57
2022/01/04 01:57:14;;;;;;;15.50;5.80;;;;;;;;;;5028505;28;20085;-56
2022/01/04 01:59:41;;;;;;;15.60;6.13;;;;;;;;;;5026283;28;20037;-57
2022/01/04 02:02:08;;;;;;;9.65;5.47;;;;;;;;;;5029531;28;20096;-55
2022/01/04 02:04:34;;;;;;;14.57;5.50;;;;;;;;;;5023941;28;20121;-58
2022/01/04 02:07:01;;;;;;;12.18;5.70;;;;;;;;;;5026451;28;20045;-56
2022/01/04 02:09:29;;;;;;;13.82;5.25;;;;;;;;;;5024115;28;20113;-56
2022/01/04 02:11:58;;;;;;;13.48;5.85;;;;;;;;;;5028007;28;20106;-58
2022/01/04 02:14:25;;;;;;;;;;;;;;;;;;5040653;28;20052;-54
2022/01/04 02:16:52;;;;;;;12.27;5.65;;;;;;;;;;5026914;28;19932;-58
2022/01/04 02:19:18;;;;;;;16.70;5.88;;;;;;;;;;5027847;28;20062;-57
2022/01/04 02:21:46;;;;;;;13.07;5.60;;;;;;;;;;5022608;28;20068;-57
2022/01/04 02:24:12;;;;;;;12.00;5.50;;;;;;;;;;5026749;28;20092;-53
2022/01/04 02:26:40;;;;;;;12.85;6.47;;;;;;;;;;5022350;28;20104;-56
2022/01/04 02:29:08;;;;;;;11.70;5.57;;;;;;;;;;5026950;28;20243;-54
2022/01/04 02:31:34;;;;;;;13.50;6.10;;;;;;;;;;5023512;28;20061;-54
2022/01/04 02:34:00;;;;;;;10.65;5.40;;;;;;;;;;5026788;28;20111;-58
2022/01/04 02:36:27;;;;;;;10.65;5.70;;;;;;;;;;5021857;28;20053;-55
2022/01/04 02:38:57;;;;;;;13.43;6.05;;;;;;;;;;5025934;28;20115;-58
2022/01/04 02:41:23;;;;;;;16.55;7.63;;;;;;;;;;5022612;28;20057;-53
2022/01/04 02:43:50;;;;;;;12.35;6.00;;;;;;;;;;5026369;28;20065;-56
2022/01/04 02:46:16;;;;;;;14.32;6.88;;;;;;;;;;5022507;28;20057;-55
2022/01/04 02:48:44;;;;;;;15.98;7.13;;;;;;;;;;5025917;28;20076;-55
2022/01/04 02:51:11;;;;;;;13.20;6.07;;;;;;;;;;5022398;28;20052;-57
2022/01/04 02:53:37;;;;;;;12.68;6.43;;;;;;;;;;5026072;28;20073;-57
2022/01/04 02:56:05;;;;;;;11.60;6.22;;;;;;;;;;5022315;28;20061;-54
2022/01/04 02:58:34;;;;;;;11.98;5.72;;;;;;;;;;5026378;28;20122;-55
2022/01/04 03:01:01;;;;;;;12.05;6.45;;;;;;;;;;5021687;28;20145;-57
2022/01/04 03:03:28;;;;;;;10.82;5.25;;;;;;;;;;5023717;28;20057;-55
2022/01/04 03:05:54;;;;;;;15.35;6.95;;;;;;;;;;5025441;28;20057;-58
2022/01/04 03:08:21;;;;;;;14.90;7.05;;;;;;;;;;5021393;28;20098;-57
2022/01/04 03:10:47;;;;;;;13.20;6.05;;;;;;;;;;5026188;28;20069;-51
2022/01/04 03:13:16;;;;;;;12.77;6.47;;;;;;;;;;5031347;28;20053;-59
2022/01/04 03:15:43;;;;;;;13.82;6.35;;;;;;;;;;5045826;28;20064;-58
2022/01/04 03:18:09;;;;;;;12.30;5.85;;;;;;;;;;5028896;28;20075;-58
2022/01/04 03:20:36;;;;;;;16.67;6.35;;;;;;;;;;5008970;28;20060;-57
2022/01/04 03:23:02;;;;;;;11.70;5.57;;;;;;;;;;5021861;28;20059;-58
2022/01/04 03:25:29;;;;;;;13.77;6.30;;;;;;;;;;5042244;28;20061;-56
2022/01/04 03:27:55;;;;;;;12.95;6.13;;;;;;;;;;5021458;28;20058;-56
2022/01/04 03:30:23;;;;;;;17.95;6.43;;;;;;;;;;5027752;28;20124;-56
2022/01/04 03:32:49;;;;;;;15.60;6.27;;;;;;;;;;5024272;28;20136;-57
2022/01/04 03:35:17;;;;;;;11.30;5.65;;;;;;;;;;5026224;28;20064;-55
2022/01/04 03:37:43;;;;;;;11.20;5.80;;;;;;;;;;5021393;28;20060;-54
2022/01/04 03:40:11;;;;;;;13.20;6.00;;;;;;;;;;5025369;28;20054;-57
2022/01/04 03:42:37;;;;;;;11.02;5.50;;;;;;;;;;5025333;28;20092;-56
2022/01/04 03:45:04;;;;;;;11.40;5.35;;;;;;;;;;5022654;28;20057;-53
2022/01/04 03:47:32;;;;;;;19.42;6.07;;;;;;;;;;5024931;28;20073;-57
2022/01/04 03:49:59;;;;;;;11.95;5.90;;;;;;;;;;5021639;28;20096;-55
2022/01/04 03:52:25;;;;;;;13.10;5.28;;;;;;;;;;5025553;28;20131;-57
2022/01/04 03:54:52;;;;;;;13.15;5.25;;;;;;;;;;5021745;28;20069;-53
2022/01/04 03:57:21;;;;;;;13.88;6.25;;;;;;;;;;5024717;28;20076;-55
2022/01/04 03:59:48;;;;;;;11.30;6.20;;;;;;;;;;5021225;28;20147;-53
2022/01/04 04:02:15;;;;;;;13.20;6.25;;;;;;;;;;5024867;28;20081;-54
2022/01/04 04:04:43;;;;;;;14.15;6.10;;;;;;;;;;5020488;28;20046;-55
2022/01/04 04:07:09;;;;;;;14.63;6.35;;;;;;;;;;5024629;28;20081;-55
2022/01/04 04:09:36;;;;;;;8.93;5.13;;;;;;;;;;5021249;28;20049;-55
2022/01/04 04:12:03;;;;;;;11.27;6.15;;;;;;;;;;5024811;28;20049;-57
2022/01/04 04:14:31;;;;;;;13.35;5.90;;;;;;;;;;5035190;28;20057;-54
2022/01/04 04:16:57;;;;;;;15.05;6.30;;;;;;;;;;5025172;28;20050;-58
2022/01/04 04:19:24;;;;;;;14.25;6.00;;;;;;;;;;5021254;28;20260;-56
2022/01/04 04:21:52;;;;;;;11.90;6.05;;;;;;;;;;5024757;28;20137;-53
2022/01/04 04:24:18;;;;;;;12.00;6.07;;;;;;;;;;5022388;28;20061;-54
2022/01/04 04:26:45;;;;;;;15.80;6.00;;;;;;;;;;5023843;28;20049;-53
2022/01/04 04:29:11;;;;;;;12.95;5.80;;;;;;;;;;5024700;28;20136;-54
2022/01/04 04:31:38;;;;;;;16.73;5.72;;;;;;;;;;5021100;28;20045;-57
2022/01/04 04:34:04;;;;;;;11.75;5.32;;;;;;;;;;5026302;28;20140;-53
2022/01/04 04:36:31;;;;;;;12.52;5.80;;;;;;;;;;5017288;28;20064;-56
2022/01/04 04:39:00;;;;;;;11.95;5.97;;;;;;;;;;5023068;28;20050;-59
2022/01/04 04:41:26;;;;;;;13.20;5.82;;;;;;;;;;5021108;28;20107;-57
2022/01/04 04:43:54;;;;;;;13.02;5.90;;;;;;;;;;5025445;28;20087;-56
2022/01/04 04:46:20;;;;;;;13.68;6.05;;;;;;;;;;5024166;28;20053;-54
2022/01/04 04:48:47;;;;;;;12.13;6.00;;;;;;;;;;5028251;28;20073;-54
2022/01/04 04:51:14;;;;;;;15.68;6.10;;;;;;;;;;5025189;28;20216;-59
2022/01/04 04:53:40;;;;;;;11.07;5.70;;;;;;;;;;5028777;28;20071;-56
2022/01/04 04:56:08;;;;;;;11.32;5.90;;;;;;;;;;5025013;28;20056;-58
2022/01/04 04:58:35;;;;;;;12.90;5.70;;;;;;;;;;5028867;28;20188;-57
2022/01/04 05:01:01;;;;;;;11.35;6.10;;;;;;;;;;5024224;28;20088;-56
2022/01/04 05:03:28;;;;;;;10.88;5.88;;;;;;;;;;5045927;28;20154;-57
2022/01/04 05:05:54;;;;;;;15.27;6.20;;;;;;;;;;5048673;28;20103;-54
2022/01/04 05:08:21;;;;;;;10.95;5.82;;;;;;;;;;5048519;28;20091;-59
2022/01/04 05:10:47;;;;;;;11.68;5.70;;;;;;;;;;5031462;28;20048;-57
2022/01/04 05:13:15;;;;;;;15.48;6.22;;;;;;;;;;5043015;28;20079;-58
2022/01/04 05:15:42;;;;;;;15.67;6.80;;;;;;;;;;5048166;28;20044;-55
2022/01/04 05:18:09;;;;;;;20.20;6.72;;;;;;;;;;5032229;28;20071;-55
2022/01/04 05:20:35;;;;;;;18.88;6.35;;;;;;;;;;5030988;28;20076;-53
2022/01/04 05:23:02;;;;;;;14.35;7.20;;;;;;;;;;5026756;28;20045;-55
2022/01/04 05:25:28;;;;;;;19.90;6.72;;;;;;;;;;5031151;28;20060;-57
2022/01/04 05:27:55;;;;;;;13.52;6.45;;;;;;;;;;5026883;28;20065;-55
2022/01/04 05:30:23;;;;;;;13.43;6.50;;;;;;;;;;5030756;28;20073;-57
2022/01/04 05:32:49;;;;;;;12.03;6.93;;;;;;;;;;5030492;28;20132;-56
2022/01/04 05:35:15;;;;;;;12.40;6.32;;;;;;;;;;5047384;28;20083;-56
2022/01/04 05:37:42;;;;;;;12.57;6.38;;;;;;;;;;5041784;28;20118;-57
2022/01/04 05:40:09;;;;;;;13.13;6.68;;;;;;;;;;5030380;28;20122;-57
2022/01/04 05:42:36;;;;;;;12.23;6.15;;;;;;;;;;5027550;28;20135;-58
2022/01/04 05:45:03;;;;;;;14.88;6.72;;;;;;;;;;5063773;28;20072;-56
2022/01/04 05:47:31;;;;;;;15.15;6.57;;;;;;;;;;5045777;28;20110;-57
2022/01/04 05:49:58;;;;;;;13.80;6.80;;;;;;;;;;5045156;28;20124;-56
2022/01/04 05:52:24;;;;;;;13.05;6.65;;;;;;;;;;5047152;28;20143;-56
2022/01/04 05:54:51;;;;;;;15.13;7.00;;;;;;;;;;5029081;28;20124;-54
2022/01/04 05:57:18;;;;;;;16.90;7.03;;;;;;;;;;5029357;28;20073;-53
2022/01/04 05:59:44;;;;;;;14.68;6.80;;;;;;;;;;5026699;28;20126;-56
2022/01/04 06:02:11;;;;;;;18.02;7.97;;;;;;;;;;5027705;28;20153;-53
2022/01/04 06:04:39;;;;;;;16.08;8.30;;;;;;;;;;5024190;28;20065;-52
2022/01/04 06:07:06;;;;;;;16.70;8.20;;;;;;;;;;5022346;28;20057;-53
2022/01/04 06:09:41;;;;;;;19.17;7.65;;;;;;;;;;5019430;28;20060;-56
2022/01/04 06:14:50;;;;;;;15.25;7.40;;;;;;;;;;5025198;28;20155;-55
2022/01/04 06:14:54;;;;;;;13.77;7.25;;;;;;;;;;5021881;28;20049;-55
2022/01/04 06:17:24;;;;;;;16.35;7.45;;;;;;;;;;5032216;28;20058;-54
2022/01/04 06:19:52;;;;;;;16.50;8.38;;;;;;;;;;5020775;28;20057;-56
2022/01/04 06:22:18;;;;;;;17.63;7.10;;;;;;;;;;5025306;28;20447;-53
2022/01/04 06:24:45;;;;;;;14.23;8.02;;;;;;;;;;5006218;28;20073;-57
2022/01/04 06:27:12;;;;;;;13.00;8.07;;;;;;;;;;5025068;28;20057;-54
2022/01/04 06:29:39;;;;;;;15.55;7.65;;;;;;;;;;5027412;28;20153;-56
2022/01/04 06:32:06;;;;;;;15.88;7.70;;;;;;;;;;5026012;28;20053;-57
2022/01/04 06:34:32;;;;;;;16.58;7.25;;;;;;;;;;5033540;28;20077;-57
2022/01/04 06:37:00;;;;;;;16.83;7.80;;;;;;;;;;5025912;28;20131;-57
2022/01/04 06:39:29;;;;;;;15.90;7.40;;;;;;;;;;5026542;28;20123;-56
2022/01/04 06:41:55;;;;;;;16.80;7.55;;;;;;;;;;5021787;28;20339;-54
2022/01/04 06:44:22;;;;;;;21.08;8.13;;;;;;;;;;5032425;28;20053;-56
2022/01/04 06:46:48;;;;;;;15.75;7.78;;;;;;;;;;5021228;28;20053;-56
2022/01/04 06:49:17;;;;;;;15.68;7.70;;;;;;;;;;5012678;28;20127;-55
2022/01/04 06:51:44;;;;;;;14.68;7.80;;;;;;;;;;5029425;28;20493;-56
2022/01/04 06:54:13;;;;;;;19.55;8.13;;;;;;;;;;5032155;28;20061;-56
2022/01/04 06:56:39;;;;;;;15.60;7.07;;;;;;;;;;5020605;28;20061;-53
2022/01/04 06:59:07;;;;;;;17.42;8.27;;;;;;;;;;5023111;28;20164;-53
2022/01/04 07:01:34;;;;;;;15.07;7.83;;;;;;;;;;5019305;28;20057;-58
2022/01/04 07:04:00;;;;;;;18.77;7.40;;;;;;;;;;5024759;28;20060;-55
2022/01/04 07:06:27;;;;;;;16.65;7.85;;;;;;;;;;5020173;28;20180;-56
2022/01/04 07:08:55;;;;;;;21.35;7.88;;;;;;;;;;5030362;28;20081;-56
2022/01/04 07:11:23;;;;;;;15.37;7.43;;;;;;;;;;5028732;28;20080;-57
2022/01/04 07:13:49;;;;;;;19.87;8.90;;;;;;;;;;5036337;28;20120;-57
2022/01/04 07:16:16;;;;;;;17.23;7.15;;;;;;;;;;5019350;28;20363;-57
2022/01/04 07:18:46;;;;;;;14.43;7.82;;;;;;;;;;5024988;28;20060;-55
2022/01/04 07:21:12;;;;;;;23.42;10.90;;;;;;;;;;5020117;28;20053;-56
2022/01/04 07:23:39;;;;;;;18.88;8.55;;;;;;;;;;5024658;28;20203;-56
2022/01/04 07:26:05;;;;;;;15.52;7.72;;;;;;;;;;5025802;28;20168;-55
2022/01/04 07:28:34;;;;;;;16.52;7.57;;;;;;;;;;5021157;28;20051;-57
2022/01/04 07:31:01;;;;;;;16.70;7.75;;;;;;;;;;5025065;28;20053;-55
2022/01/04 07:33:27;;;;;;;18.00;7.90;;;;;;;;;;5022070;28;20041;-57
2022/01/04 07:35:54;;;;;;;17.02;8.45;;;;;;;;;;5026654;28;20050;-54
2022/01/04 07:38:20;;;;;;;17.38;7.88;;;;;;;;;;5020832;28;20046;-54
2022/01/04 07:40:47;;;;;;;16.00;7.40;;;;;;;;;;5025260;28;20053;-53
2022/01/04 07:43:14;;;;;;;17.15;7.93;;;;;;;;;;5021197;28;20108;-57
2022/01/04 07:45:42;;;;;;;18.13;8.15;;;;;;;;;;5025381;28;20049;-56
2022/01/04 07:48:10;;;;;;;20.20;8.20;;;;;;;;;;5021280;28;20056;-54
2022/01/04 07:50:37;;;;;;;19.25;8.57;;;;;;;;;;5026076;28;20081;-54
2022/01/04 07:53:03;;;;;;;19.83;7.97;;;;;;;;;;5022243;28;20185;-53
2022/01/04 07:55:30;;;;;;;19.13;8.63;;;;;;;;;;5025434;28;20053;-56
2022/01/04 07:57:56;;;;;;;16.30;8.60;;;;;;;;;;5021733;28;20148;-56
2022/01/04 08:00:25;;;;;;;17.23;7.88;;;;;;;;;;5025713;28;20053;-55
2022/01/04 08:02:53;;;;;;;19.63;8.55;;;;;;;;;;5022725;28;20057;-57
2022/01/04 08:05:19;;;;;;;17.70;8.63;;;;;;;;;;5042494;28;20077;-56
2022/01/04 08:07:46;;;;;;;21.27;9.18;;;;;;;;;;5026374;28;20065;-57
2022/01/04 08:10:13;;;;;;;22.02;9.23;;;;;;;;;;5021578;28;20053;-56
2022/01/04 08:12:40;;;;;;;20.30;8.97;;;;;;;;;;5031666;28;20064;-57
2022/01/04 08:15:07;;;;;;;24.70;9.65;;;;;;;;;;5025905;28;20061;-56
2022/01/04 08:17:36;;;;;;;18.73;8.60;;;;;;;;;;5024929;28;20057;-56
2022/01/04 08:20:05;;;;;;;18.02;8.57;;;;;;;;;;5022025;28;20140;-54
2022/01/04 08:22:32;;;;;;;12.95;7.40;;;;;;;;;;5029395;28;20085;-56
2022/01/04 08:25:01;;;;;;;22.23;9.40;;;;;;;;;;5025367;28;20057;-57
2022/01/04 08:27:27;;;;;;;23.20;9.77;;;;;;;;;;5028193;28;20089;-57
2022/01/04 08:29:54;;;;;;;22.90;10.02;;;;;;;;;;5024075;28;20057;-53
2022/01/04 08:32:21;;;;;;;17.67;7.65;;;;;;;;;;5045549;28;20049;-56
2022/01/04 08:34:48;;;;;;;23.75;9.90;;;;;;;;;;5025067;28;20119;-54
2022/01/04 08:37:16;;;;;;;20.38;9.75;;;;;;;;;;5028588;28;20138;-57
2022/01/04 08:39:45;;;;;;;22.70;10.73;;;;;;;;;;5023485;28;20095;-55
2022/01/04 08:42:11;;;;;;;20.20;9.85;;;;;;;;;;5028677;28;20054;-57
2022/01/04 08:44:39;;;;;;;20.45;9.65;;;;;;;;;;5024759;28;20049;-56
2022/01/04 08:47:06;;;;;;;26.25;10.40;;;;;;;;;;5028252;28;20140;-54
2022/01/04 08:49:34;;;;;;;31.58;12.85;;;;;;;;;;5028171;28;20049;-57
2022/01/04 08:52:01;;;;;;;26.63;11.15;;;;;;;;;;5026942;28;20099;-56
2022/01/04 08:54:29;;;;;;;21.08;10.18;;;;;;;;;;5028472;28;20135;-56
2022/01/04 08:56:55;;;;;;;22.58;10.25;;;;;;;;;;5024612;28;20063;-56
2022/01/04 08:59:22;;;;;;;27.50;11.65;;;;;;;;;;5027940;28;20076;-57
2022/01/04 09:01:49;;;;;;;19.63;8.85;;;;;;;;;;5028429;28;20046;-57
2022/01/04 09:04:15;;;;;;;26.42;10.20;;;;;;;;;;5051715;28;20139;-57
2022/01/04 09:06:42;;;;;;;23.45;10.35;;;;;;;;;;5035286;28;20146;-56
2022/01/04 09:09:09;;;;;;;26.27;11.07;;;;;;;;;;5032454;28;20053;-57
2022/01/04 09:11:37;;;;;;;24.05;10.82;;;;;;;;;;5034576;28;20052;-56
2022/01/04 09:14:21;;;;;;;22.43;10.67;;;;;;;;;;5048157;28;20120;-58
2022/01/04 09:19:32;;;;;;;17.02;6.82;;;;;;;;;;5031148;28;20053;-57
2022/01/04 09:21:59;;;;;;;18.90;7.88;;;;;;;;;;5028202;28;20401;-58
2022/01/04 09:24:25;;;;;;;19.05;8.00;;;;;;;;;;5031731;28;20154;-56
2022/01/04 09:26:54;;;;;;;22.05;8.55;;;;;;;;;;5025408;28;20049;-57
2022/01/04 09:29:23;;;;;;;21.70;9.75;;;;;;;;;;5030923;28;20114;-59
2022/01/04 09:31:50;;;;;;;21.90;9.30;;;;;;;;;;5026740;28;20060;-56
2022/01/04 09:34:17;;;;;;;19.33;8.40;;;;;;;;;;5031236;28;20076;-57
2022/01/04 09:36:44;;;;;;;18.15;8.13;;;;;;;;;;5043834;28;20307;-57
2022/01/04 09:39:15;;;;;;;15.38;6.55;;;;;;;;;;5047437;28;20080;-58
2022/01/04 09:41:42;;;;;;;14.82;5.45;;;;;;;;;;5029177;28;20134;-59
2022/01/04 09:44:10;;;;;;;11.02;4.40;;;;;;;;;;5030582;28;20057;-54
2022/01/04 09:46:37;;;;;;;9.65;3.88;;;;;;;;;;5028813;28;20057;-56
2022/01/04 09:49:04;;;;;;;7.97;2.78;;;;;;;;;;5027284;28;20077;-56
2022/01/04 09:51:31;;;;;;;7.68;3.63;;;;;;;;;;5030884;28;20107;-56
2022/01/04 09:53:58;;;;;;;14.38;4.13;;;;;;;;;;5027118;28;20048;-57
2022/01/04 09:56:24;;;;;;;16.40;5.55;;;;;;;;;;5030761;28;20164;-53
2022/01/04 09:58:51;;;;;;;7.95;3.25;;;;;;;;;;5027054;28;20055;-56
2022/01/04 10:01:20;;;;;;;7.25;2.67;;;;;;;;;;5031384;28;20045;-58
2022/01/04 10:03:47;;;;;;;;;;;;;;;;;;5027039;28;20057;-55
2022/01/04 10:06:15;;;;;;;8.65;3.45;;;;;;;;;;5030525;28;19967;-58
2022/01/04 10:08:42;;;;;;;;;;;;;;;;;;5026116;28;20060;-53
2022/01/04 10:11:10;;;;;;;8.00;3.15;;;;;;;;;;5030751;28;19928;-56
2022/01/04 10:13:37;;;;;;;;;;;;;;;;;;5035773;28;20124;-59
2022/01/04 10:16:14;;;;;;;9.93;3.83;;;;;;;;;;5047072;28;19928;-54
2022/01/04 10:18:46;;;;;;;11.82;4.38;;;;;;;;;;5040498;28;20132;-58
2022/01/04 10:21:14;;;;;;;11.73;4.35;;;;;;;;;;5030451;28;20060;-56
2022/01/04 10:23:46;;;;;;;11.93;4.73;;;;;;;;;;5026675;28;20073;-57
2022/01/04 10:26:13;;;;;;;10.52;4.65;;;;;;;;;;5030602;28;20056;-54
2022/01/04 10:28:41;;;;;;;11.13;4.68;;;;;;;;;;5025952;28;20057;-55
2022/01/04 10:31:09;;;;;;;11.13;4.40;;;;;;;;;;5046725;28;20049;-55
2022/01/04 10:33:36;;;;;;;10.55;5.05;;;;;;;;;;5062696;28;20053;-53
2022/01/04 10:36:11;;;;;;;12.93;5.32;;;;;;;;;;5043007;28;20052;-56
2022/01/04 10:38:40;;;;;;;14.52;5.35;;;;;;;;;;5046949;28;20056;-57
2022/01/04 10:41:08;;;;;;;9.57;4.43;;;;;;;;;;5059271;28;20128;-55
2022/01/04 10:43:38;;;;;;;10.32;4.40;;;;;;;;;;5046847;28;20075;-58
2022/01/04 10:46:05;;;;;;;9.88;4.40;;;;;;;;;;5028793;28;20095;-56
2022/01/04 10:48:34;;;;;;;12.88;5.82;;;;;;;;;;5028943;28;20056;-56
2022/01/04 10:51:07;;;;;;;12.00;5.22;;;;;;;;;;5026321;28;20151;-53
2022/01/04 10:53:35;;;;;;;14.80;5.38;;;;;;;;;;5029515;28;20107;-55
2022/01/04 10:56:02;;;;;;;;;;;;;;;;;;5026056;28;20122;-56
2022/01/04 10:58:31;;;;;;;10.90;4.55;;;;;;;;;;5029530;28;19927;-56
2022/01/04 11:00:58;;;;;;;16.67;6.45;;;;;;;;;;5030588;28;20064;-59
2022/01/04 11:03:26;;;;;;;13.60;5.57;;;;;;;;;;5045644;28;20080;-53
2022/01/04 11:05:53;;;;;;;15.38;6.13;;;;;;;;;;5041608;28;20052;-54
2022/01/04 11:08:21;;;;;;;12.70;5.53;;;;;;;;;;5062513;28;20139;-57
2022/01/04 11:10:50;;;;;;;20.30;6.28;;;;;;;;;;5037711;28;20057;-55
2022/01/04 11:13:16;;;;;;;14.32;6.05;;;;;;;;;;5036825;28;20106;-58
2022/01/04 11:15:43;;;;;;;18.67;5.97;;;;;;;;;;5043532;28;20127;-59
2022/01/04 11:18:11;;;;;;;14.20;6.15;;;;;;;;;;5030746;28;20119;-56
2022/01/04 11:20:40;;;;;;;10.98;5.20;;;;;;;;;;5025896;28;20056;-56
2022/01/04 11:23:07;;;;;;;12.60;5.35;;;;;;;;;;5063010;28;20053;-56
2022/01/04 11:25:35;;;;;;;14.43;6.07;;;;;;;;;;5062490;28;20049;-54
2022/01/04 11:28:01;;;;;;;13.17;5.87;;;;;;;;;;5040433;28;20106;-58
2022/01/04 11:30:31;;;;;;;11.52;5.95;;;;;;;;;;5037365;28;20058;-56
2022/01/04 11:33:00;;;;;;;19.08;6.63;;;;;;;;;;5040464;28;20061;-56
2022/01/04 11:35:26;;;;;;;17.23;7.97;;;;;;;;;;5061958;28;20064;-55
2022/01/04 11:37:56;;;;;;;14.60;5.95;;;;;;;;;;5029136;28;20072;-55
2022/01/04 11:40:23;;;;;;;14.88;6.03;;;;;;;;;;5036961;28;20141;-57
2022/01/04 11:42:51;;;;;;;15.30;4.72;;;;;;;;;;5048399;28;20076;-58
2022/01/04 11:45:37;;;;;;;14.63;5.13;;;;;;;;;;5028472;28;20128;-57
2022/01/04 11:48:03;;;;;;;13.13;4.93;;;;;;;;;;5025381;28;20117;-56
2022/01/04 11:50:36;;;;;;;11.18;5.00;;;;;;;;;;5045133;28;20063;-55
2022/01/04 11:53:08;;;;;;;10.80;4.38;;;;;;;;;;5032614;28;20102;-56
2022/01/04 11:55:36;;;;;;;11.25;4.95;;;;;;;;;;5044716;28;20057;-56
2022/01/04 11:58:08;;;;;;;9.88;4.40;;;;;;;;;;5039592;28;20049;-56
2022/01/04 12:00:37;;;;;;;10.07;4.63;;;;;;;;;;5061710;28;20072;-55
2022/01/04 12:03:03;;;;;;;;;;;;;;;;;;5057828;28;20092;-55
2022/01/04 12:05:30;;;;;;;9.77;3.72;;;;;;;;;;5045362;28;19939;-53
2022/01/04 12:08:03;;;;;;;9.48;3.55;;;;;;;;;;5057239;28;20135;-58
2022/01/04 12:10:34;;;;;;;13.38;3.70;;;;;;;;;;5062205;28;20112;-55
2022/01/04 12:13:01;;;;;;;9.50;3.60;;;;;;;;;;5033936;28;20132;-54
2022/01/04 12:15:46;;;;;;;11.60;4.22;;;;;;;;;;5028890;28;20139;-55
2022/01/04 12:18:28;;;;;;;10.52;4.30;;;;;;;;;;5025117;28;20068;-56
2022/01/04 12:20:57;;;;;;;9.95;3.53;;;;;;;;;;5026191;28;20057;-54
2022/01/04 12:23:42;;;;;;;10.07;3.00;;;;;;;;;;5024839;28;20064;-54
2022/01/04 12:26:25;;;;;;;9.13;2.85;;;;;;;;;;5045505;28;20065;-56
2022/01/04 12:29:10;;;;;;;6.63;2.90;;;;;;;;;;5025608;28;20044;-55
2022/01/04 12:31:45;;;;;;;9.30;3.13;;;;;;;;;;5029459;28;20144;-52
2022/01/04 12:34:25;;;;;;;7.10;3.20;;;;;;;;;;5026371;28;20052;-57
2022/01/04 12:36:53;;;;;;;9.48;2.22;;;;;;;;;;5029303;28;20110;-56
2022/01/04 12:39:21;;;;;;;6.90;2.22;;;;;;;;;;5025141;28;20053;-57
2022/01/04 12:41:50;;;;;;;5.70;1.92;;;;;;;;;;5030156;28;20053;-55
2022/01/04 12:44:23;;;;;;;4.75;1.75;;;;;;;;;;5026520;28;20057;-55
2022/01/04 12:46:49;;;;;;;7.38;2.00;;;;;;;;;;5029258;28;20073;-55
2022/01/04 12:49:17;;;;;;;6.00;1.30;;;;;;;;;;5026818;28;20052;-60
2022/01/04 12:51:47;;;;;;;5.90;1.10;;;;;;;;;;5029082;28;20056;-57
2022/01/04 12:54:16;;;;;;;2.42;1.42;;;;;;;;;;5025230;28;20144;-57
2022/01/04 12:56:44;;;;;;;7.47;1.60;;;;;;;;;;5046142;28;20152;-59
2022/01/04 12:59:11;;;;;;;5.60;2.00;;;;;;;;;;5045707;28;20049;-57
2022/01/04 13:01:37;;;;;;;5.80;1.50;;;;;;;;;;5058101;28;20052;-57
2022/01/04 13:04:18;;;;;;;5.15;1.13;;;;;;;;;;5062951;28;20064;-58
2022/01/04 13:06:45;;;;;;;6.03;1.00;;;;;;;;;;5030162;28;20057;-57
2022/01/04 13:09:17;;;;;;;2.38;0.90;;;;;;;;;;5029320;28;20049;-56
2022/01/04 13:11:47;;;;;;;3.35;1.20;;;;;;;;;;5039189;28;20057;-54
2022/01/04 13:14:19;;;;;;;5.63;1.20;;;;;;;;;;5049358;28;20060;-55
2022/01/04 13:16:47;;;;;;;3.50;1.13;;;;;;;;;;5034310;28;20135;-58
2022/01/04 13:19:14;;;;;;;5.53;1.00;;;;;;;;;;5048629;28;20099;-58
2022/01/04 13:21:41;;;;;;;2.67;1.00;;;;;;;;;;5018976;28;20056;-57
2022/01/04 13:24:08;;;;;;;2.15;0.80;;;;;;;;;;5032144;28;20120;-58
2022/01/04 13:26:36;;;;;;;1.83;1.10;;;;;;;;;;5033710;28;20061;-53
2022/01/04 13:29:02;;;;;;;1.30;0.70;;;;;;;;;;5047351;28;20155;-57
2022/01/04 13:31:29;;;;;;;2.13;1.10;;;;;;;;;;5038980;28;20044;-57
2022/01/04 13:33:56;;;;;;;2.75;1.05;;;;;;;;;;5031398;28;20064;-57
2022/01/04 13:36:23;;;;;;;5.72;1.50;;;;;;;;;;5028543;28;20060;-56
2022/01/04 13:38:50;;;;;;;3.60;1.13;;;;;;;;;;5047314;28;20082;-57
2022/01/04 13:41:31;;;;;;;4.25;1.25;;;;;;;;;;5027578;28;20085;-58
2022/01/04 13:44:03;;;;;;;3.47;1.30;;;;;;;;;;5065473;28;20091;-57
2022/01/04 13:46:30;;;;;;;1.67;0.93;;;;;;;;;;5062056;28;20110;-57
2022/01/04 13:48:58;;;;;;;1.55;0.77;;;;;;;;;;5047358;28;20088;-58
2022/01/04 13:51:26;;;;;;;1.92;0.85;;;;;;;;;;5061653;28;20083;-55
2022/01/04 13:53:55;;;;;;;1.60;0.80;;;;;;;;;;5010909;28;20271;-57
2022/01/04 13:56:23;;;;;;;1.23;0.45;;;;;;;;;;5002644;28;20076;-54
2022/01/04 13:58:52;;;;;;;2.35;0.50;;;;;;;;;;5041766;28;20065;-57
2022/01/04 14:01:22;;;;;;;2.80;0.70;;;;;;;;;;5064609;28;20053;-56
2022/01/04 14:03:49;;;;;;;1.80;0.65;;;;;;;;;;5046349;28;20049;-56
2022/01/04 14:06:43;;;;;;;4.28;0.75;;;;;;;;;;5030482;28;20057;-54
2022/01/04 14:09:10;;;;;;;2.00;0.70;;;;;;;;;;4985613;28;20080;-56
2022/01/04 14:11:42;;;;;;;0.70;0.60;;;;;;;;;;5047747;28;20171;-56
2022/01/04 14:14:10;;;;;;;2.35;0.93;;;;;;;;;;5059178;28;20063;-58
2022/01/04 14:16:45;;;;;;;2.47;0.80;;;;;;;;;;5048445;28;20060;-56
2022/01/04 14:19:15;;;;;;;2.90;0.47;;;;;;;;;;5042799;28;20159;-56
2022/01/04 14:21:42;;;;;;;2.63;0.75;;;;;;;;;;5048898;28;20099;-59
2022/01/04 14:24:26;;;;;;;4.90;0.70;;;;;;;;;;5033759;28;20049;-57
2022/01/04 14:26:53;;;;;;;4.38;1.08;;;;;;;;;;5029685;28;20077;-55
2022/01/04 14:29:27;;;;;;;1.95;0.90;;;;;;;;;;5025922;28;20088;-58
2022/01/04 14:31:56;;;;;;;2.25;0.82;;;;;;;;;;5030203;28;20077;-58
2022/01/04 14:34:23;;;;;;;6.80;1.30;;;;;;;;;;5026069;28;20068;-59
2022/01/04 14:36:51;;;;;;;2.90;0.75;;;;;;;;;;5030315;28;20083;-55
2022/01/04 14:39:18;;;;;;;1.83;0.68;;;;;;;;;;5027792;28;20056;-58
2022/01/04 14:41:44;;;;;;;1.98;0.70;;;;;;;;;;5046126;28;20067;-57
2022/01/04 14:44:11;;;;;;;3.22;0.70;;;;;;;;;;5026170;28;20136;-53